Time;durP1;ratioP1;P1;durP2;ratioP2;P2;SDS_P1;SDS_P2;PMS_P1;PMS_P2;Temp;Humidity;BMP_temperature;BMP_pressure;BME280_temperature;BME280_humidity;BME280_pressure;Samples;Min_cycle;Max_cycle;Signal;HPM_P1;HPM_P2
2022/06/03 00:00:19;;;;;;;0.63;0.63;;;;;;;15.89;61.49;100044.41;5037528;28;20394;-66
2022/06/03 00:03:11;;;;;;;0.40;0.40;;;;;;;15.91;61.88;100044.38;5058030;28;20095;-66
2022/06/03 00:05:52;;;;;;;0.70;0.70;;;;;;;15.84;61.54;100047.94;5057832;28;20429;-66
2022/06/03 00:08:43;;;;;;;0.95;0.90;;;;;;;15.91;61.69;100054.66;5057889;28;20041;-66
2022/06/03 00:11:32;;;;;;;1.60;1.25;;;;;;;15.98;61.52;100059.69;5057841;28;20048;-66
2022/06/03 00:14:31;;;;;;;0.50;0.50;;;;;;;16.00;60.33;100070.81;5057233;28;20041;-66
2022/06/03 00:17:12;;;;;;;5.70;1.88;;;;;;;15.98;60.08;100064.03;5039152;28;20048;-66
2022/06/03 00:20:08;;;;;;;0.50;0.50;;;;;;;15.79;60.29;100045.44;5057369;28;20048;-65
2022/06/03 00:23:03;;;;;;;1.55;1.45;;;;;;;15.84;60.50;100056.50;5039503;28;20090;-66
2022/06/03 00:26:14;;;;;;;0.98;0.98;;;;;;;15.72;60.71;100059.28;5057220;28;20037;-66
2022/06/03 00:28:58;;;;;;;0.75;0.75;;;;;;;15.74;60.74;100067.81;4964686;28;20051;-67
2022/06/03 00:32:17;;;;;;;0.70;0.70;;;;;;;15.75;60.73;100064.38;5056909;28;20048;-66
2022/06/03 00:35:20;;;;;;;0.50;0.50;;;;;;;15.74;60.77;100078.09;5056858;28;20072;-66
2022/06/03 00:37:55;;;;;;;0.85;0.85;;;;;;;15.65;60.91;100057.66;5036686;28;20549;-66
2022/06/03 00:40:46;;;;;;;0.63;0.63;;;;;;;15.68;60.42;100062.78;5036763;28;20049;-66
2022/06/03 00:43:33;;;;;;;0.55;0.55;;;;;;;15.63;60.71;100069.72;5036690;28;20049;-64
2022/06/03 00:46:22;;;;;;;0.73;0.73;;;;;;;15.59;60.48;100062.91;5036965;28;20490;-66
2022/06/03 00:49:12;;;;;;;1.85;1.08;;;;;;;15.56;60.79;100073.25;5036407;28;20498;-66
2022/06/03 00:51:52;;;;;;;;;;;;;;;15.49;60.85;100081.06;5037236;28;20485;-66
2022/06/03 00:54:26;;;;;;;;;;;;;;;15.38;61.28;100083.75;5037293;28;19967;-66
2022/06/03 00:57:13;;;;;;;0.60;0.60;;;;;;;15.18;61.53;100085.75;5036395;28;19925;-66
2022/06/03 01:00:03;;;;;;;0.70;0.70;;;;;;;15.14;61.23;100084.09;5036250;28;20041;-66
2022/06/03 01:02:51;;;;;;;0.75;0.75;;;;;;;15.01;61.53;100067.13;5036369;28;20050;-66
2022/06/03 01:05:34;;;;;;;0.80;0.80;;;;;;;14.92;62.17;100080.09;5036853;28;20064;-66
2022/06/03 01:08:14;;;;;;;0.70;0.70;;;;;;;14.89;62.53;100085.25;5036319;28;20052;-66
2022/06/03 01:11:01;;;;;;;0.60;0.60;;;;;;;14.86;62.00;100077.56;5035821;28;20469;-66
2022/06/03 01:14:04;;;;;;;0.82;0.80;;;;;;;14.77;62.00;100079.41;5036398;28;20111;-66
2022/06/03 01:16:55;;;;;;;1.08;0.95;;;;;;;14.68;62.71;100087.19;5033531;28;20045;-66
2022/06/03 01:20:01;;;;;;;0.90;0.90;;;;;;;14.54;62.63;100083.09;5035917;28;20109;-66
2022/06/03 01:23:17;;;;;;;0.60;0.60;;;;;;;14.30;63.53;100094.41;5036030;28;20053;-66
2022/06/03 01:26:10;;;;;;;1.13;0.68;;;;;;;14.00;64.38;100097.22;5027978;28;20073;-66
2022/06/03 01:29:09;;;;;;;0.82;0.82;;;;;;;13.86;64.96;100099.06;5036110;28;20080;-66
2022/06/03 01:32:11;;;;;;;0.50;0.50;;;;;;;13.74;65.53;100100.00;5035696;28;20052;-66
2022/06/03 01:34:55;;;;;;;1.05;0.80;;;;;;;13.67;65.83;100093.22;4936812;29;20071;-66
2022/06/03 01:37:29;;;;;;;0.60;0.60;;;;;;;13.60;65.95;100096.69;5018482;28;20091;-66
2022/06/03 01:40:31;;;;;;;0.40;0.40;;;;;;;13.55;66.31;100100.13;5035664;28;20378;-66
2022/06/03 01:43:23;;;;;;;0.60;0.60;;;;;;;13.54;66.45;100106.09;5031220;28;20053;-66
2022/06/03 01:46:03;;;;;;;0.60;0.60;;;;;;;13.50;66.36;100102.72;5035579;28;20132;-66
2022/06/03 01:49:04;;;;;;;0.88;0.88;;;;;;;13.42;66.79;100102.75;5035347;28;20517;-66
2022/06/03 01:52:15;;;;;;;0.70;0.70;;;;;;;13.40;66.79;100094.22;5035267;28;20050;-66
2022/06/03 01:55:09;;;;;;;1.05;1.00;;;;;;;13.57;66.52;100106.09;4994460;28;20100;-66
2022/06/03 01:58:01;;;;;;;0.70;0.70;;;;;;;13.67;66.84;100108.59;5035465;28;20521;-67
2022/06/03 02:00:36;;;;;;;0.57;0.57;;;;;;;13.84;66.19;100103.34;5035187;28;20056;-66
2022/06/03 02:03:32;;;;;;;0.50;0.50;;;;;;;13.97;65.72;100103.25;5035158;28;20064;-66
2022/06/03 02:06:32;;;;;;;0.50;0.50;;;;;;;14.14;65.07;100105.66;5035145;28;20570;-66
2022/06/03 02:09:24;;;;;;;0.70;0.70;;;;;;;14.29;64.69;100104.69;5001752;28;20578;-66
2022/06/03 02:12:31;;;;;;;7.32;0.95;;;;;;;14.39;64.08;100096.94;5035082;28;20103;-66
2022/06/03 02:15:30;;;;;;;0.90;0.90;;;;;;;14.45;63.46;100093.44;5035313;28;20060;-66
2022/06/03 02:18:21;;;;;;;0.60;0.60;;;;;;;14.51;62.70;100093.38;5034861;28;20485;-66
2022/06/03 02:21:13;;;;;;;0.95;0.70;;;;;;;14.53;63.25;100100.22;5035060;28;20045;-66
2022/06/03 02:24:07;;;;;;;19.33;1.20;;;;;;;14.50;63.07;100100.22;5033914;28;20060;-66
2022/06/03 02:27:09;;;;;;;3.67;0.93;;;;;;;14.41;63.79;100113.16;5035059;28;20041;-66
2022/06/03 02:33:03;;;;;;;0.85;0.77;;;;;;;14.57;62.68;100109.59;5034956;28;20113;-66
2022/06/03 02:35:53;;;;;;;0.57;0.57;;;;;;;14.54;62.25;100095.94;5039662;28;20053;-66
2022/06/03 02:38:53;;;;;;;0.88;0.85;;;;;;;14.65;62.97;100110.38;5054364;28;20048;-66
2022/06/03 02:41:47;;;;;;;0.55;0.55;;;;;;;14.72;62.56;100109.44;5054290;28;20123;-66
2022/06/03 02:44:45;;;;;;;0.68;0.68;;;;;;;14.76;62.42;100115.38;5054554;28;20048;-66
2022/06/03 02:48:32;;;;;;;1.02;0.93;;;;;;;14.78;61.75;100111.91;5055085;28;20448;-66
2022/06/03 02:51:22;;;;;;;1.20;0.70;;;;;;;14.79;61.45;100112.78;4993441;28;20065;-66
2022/06/03 02:54:23;;;;;;;0.50;0.50;;;;;;;14.80;61.82;100111.06;4977155;28;20065;-66
2022/06/03 02:57:13;;;;;;;0.73;0.73;;;;;;;14.81;61.68;100115.31;4962215;28;20479;-66
2022/06/03 03:00:03;;;;;;;0.68;0.60;;;;;;;14.83;61.76;100118.75;4992993;28;20054;-67
2022/06/03 03:03:02;;;;;;;0.73;0.70;;;;;;;14.85;61.42;100112.72;4992791;28;20077;-66
2022/06/03 03:05:52;;;;;;;0.70;0.70;;;;;;;14.83;61.74;100109.28;4993102;28;20085;-66
2022/06/03 03:08:32;;;;;;;;;;;;;;;14.90;62.03;100120.38;5005257;28;20124;-66
2022/06/03 03:11:26;;;;;;;0.50;0.50;;;;;;;14.89;62.30;100113.53;5053837;28;19943;-66
2022/06/03 03:14:25;;;;;;;0.60;0.60;;;;;;;14.90;62.63;100110.09;5053834;28;20136;-66
2022/06/03 03:17:14;;;;;;;0.57;0.57;;;;;;;14.88;63.54;100109.25;5053763;28;20556;-66
2022/06/03 03:20:10;;;;;;;0.50;0.50;;;;;;;14.87;63.67;100115.28;5052175;28;20037;-66
2022/06/03 03:22:58;;;;;;;0.55;0.55;;;;;;;14.85;64.22;100114.44;5054179;28;20514;-66
2022/06/03 03:25:44;;;;;;;0.70;0.70;;;;;;;14.85;64.28;100114.44;5053886;28;20045;-66
2022/06/03 03:28:42;;;;;;;0.55;0.55;;;;;;;14.94;63.98;100112.63;5053647;28;20080;-67
2022/06/03 03:31:39;;;;;;;0.68;0.68;;;;;;;15.04;63.69;100103.06;5014509;28;20065;-67
2022/06/03 03:34:21;;;;;;;0.65;0.65;;;;;;;15.04;63.70;100103.06;5053506;28;20115;-66
2022/06/03 03:37:15;;;;;;;0.55;0.55;;;;;;;15.17;63.86;100109.75;5053383;28;20053;-66
2022/06/03 03:40:12;;;;;;;0.60;0.60;;;;;;;15.26;63.53;100102.78;4973049;28;20061;-66
2022/06/03 03:43:12;;;;;;;0.60;0.60;;;;;;;15.31;64.11;100106.13;5052916;28;20414;-66
2022/06/03 03:46:10;;;;;;;0.85;0.85;;;;;;;15.38;63.88;100100.03;5053641;28;20065;-66
2022/06/03 03:49:19;;;;;;;0.60;0.60;;;;;;;15.45;64.00;100110.28;5053469;28;20110;-67
2022/06/03 03:52:12;;;;;;;0.80;0.80;;;;;;;15.52;63.48;100119.63;5053668;28;20056;-68
2022/06/03 03:55:09;;;;;;;0.52;0.52;;;;;;;15.58;63.02;100117.81;5053594;28;20619;-68
2022/06/03 03:58:25;;;;;;;0.70;0.70;;;;;;;15.64;62.71;100119.47;5053272;28;20128;-67
2022/06/03 04:01:14;;;;;;;0.60;0.60;;;;;;;15.73;61.97;100120.19;4956507;28;20043;-67
2022/06/03 04:04:12;;;;;;;0.70;0.70;;;;;;;15.69;61.51;100118.50;5046668;28;20049;-67
2022/06/03 04:07:25;;;;;;;1.27;1.02;;;;;;;15.66;61.05;100116.00;5053102;28;20051;-69
2022/06/03 04:10:26;;;;;;;1.35;1.17;;;;;;;15.66;61.52;100116.00;5019973;28;20041;-66
2022/06/03 04:13:17;;;;;;;0.90;0.90;;;;;;;15.65;60.78;100119.44;5053085;28;20069;-67
2022/06/03 04:16:15;;;;;;;0.80;0.80;;;;;;;15.59;61.05;100129.81;5053720;28;20072;-68
2022/06/03 04:19:10;;;;;;;0.75;0.75;;;;;;;15.61;60.97;100130.66;5053158;28;20052;-67
2022/06/03 04:22:20;;;;;;;1.13;1.08;;;;;;;15.70;61.06;100133.09;5052975;28;20068;-67
2022/06/03 04:25:36;;;;;;;0.60;0.60;;;;;;;15.81;61.16;100141.50;4953169;29;20102;-67
2022/06/03 04:28:32;;;;;;;0.63;0.63;;;;;;;15.89;60.71;100149.97;5023674;28;20135;-68
2022/06/03 04:31:43;;;;;;;0.95;0.82;;;;;;;15.96;60.76;100141.28;5052915;28;20033;-67
2022/06/03 04:34:38;;;;;;;1.48;1.10;;;;;;;16.07;60.27;100154.84;5052827;28;20060;-67
2022/06/03 04:37:47;;;;;;;0.80;0.80;;;;;;;16.14;60.15;100149.59;5034917;28;20068;-68
2022/06/03 04:40:46;;;;;;;1.25;0.98;;;;;;;16.30;59.63;100148.47;5053022;28;20037;-68
2022/06/03 04:43:51;;;;;;;0.60;0.60;;;;;;;16.14;59.12;100108.38;5019449;28;20246;-68
2022/06/03 04:46:42;;;;;;;0.70;0.70;;;;;;;16.43;58.93;100147.41;5054683;28;20445;-67
2022/06/03 04:49:45;;;;;;;1.50;1.17;;;;;;;16.55;59.08;100149.78;5057089;28;20568;-68
2022/06/03 04:53:07;;;;;;;0.60;0.60;;;;;;;16.59;58.42;100143.69;5056514;28;20063;-67
2022/06/03 04:56:19;;;;;;;0.68;0.68;;;;;;;16.66;58.77;100148.72;5056404;28;20041;-68
2022/06/03 04:59:45;;;;;;;0.60;0.60;;;;;;;16.77;58.58;100151.13;5048888;28;20045;-68
2022/06/03 05:03:02;;;;;;;0.47;0.47;;;;;;;16.87;58.24;100152.63;5041436;28;20053;-68
2022/06/03 05:05:53;;;;;;;0.73;0.73;;;;;;;16.96;58.07;100160.22;5056329;28;20044;-68
2022/06/03 05:12:09;;;;;;;0.55;0.55;;;;;;;17.23;57.66;100164.81;5028810;28;20167;-68
2022/06/03 05:15:06;;;;;;;1.48;1.35;;;;;;;17.31;57.34;100173.25;5056213;28;20132;-68
2022/06/03 05:17:59;;;;;;;0.73;0.70;;;;;;;17.41;57.00;100179.09;5055937;28;20072;-68
2022/06/03 05:20:51;;;;;;;1.30;1.20;;;;;;;17.51;57.00;100177.16;5056312;28;20029;-69
2022/06/03 05:23:44;;;;;;;0.60;0.60;;;;;;;17.56;56.51;100181.41;5056265;28;20045;-68
2022/06/03 05:26:50;;;;;;;0.70;0.70;;;;;;;17.63;56.43;100172.63;5055936;28;20395;-69
2022/06/03 05:29:49;;;;;;;0.70;0.70;;;;;;;17.77;56.13;100168.00;5022632;28;20045;-67
2022/06/03 05:32:32;;;;;;;;;;;;;;;18.00;56.35;100170.91;5055752;28;20037;-67
2022/06/03 05:35:21;;;;;;;0.65;0.65;;;;;;;18.23;56.06;100167.81;5055442;28;20370;-70
2022/06/03 05:38:19;;;;;;;1.17;1.08;;;;;;;18.53;55.86;100167.06;5055911;28;20037;-69
2022/06/03 05:44:17;;;;;;;0.82;0.82;;;;;;;19.12;54.91;100169.84;5055080;28;20045;-69
2022/06/03 05:47:02;;;;;;;1.00;0.90;;;;;;;19.30;54.39;100166.72;5055276;28;20045;-69
2022/06/03 05:49:38;;;;;;;0.75;0.75;;;;;;;19.35;53.97;100157.94;5055390;28;20091;-68
2022/06/03 05:52:29;;;;;;;0.52;0.52;;;;;;;19.58;54.05;100152.09;5055170;28;20057;-67
2022/06/03 05:55:21;;;;;;;2.38;1.45;;;;;;;19.81;53.93;100154.88;5055552;28;20136;-69
2022/06/03 05:58:34;;;;;;;0.70;0.70;;;;;;;20.03;53.22;100161.06;5055115;28;20137;-69
2022/06/03 06:01:22;;;;;;;1.27;1.15;;;;;;;20.27;52.58;100148.25;5055031;28;20049;-69
2022/06/03 06:04:00;;;;;;;0.45;0.45;;;;;;;20.28;52.61;100134.38;5055472;28;20068;-69
2022/06/03 06:06:52;;;;;;;0.75;0.68;;;;;;;20.47;52.27;100148.44;5055052;28;20041;-69
2022/06/03 06:09:43;;;;;;;0.60;0.60;;;;;;;20.57;52.19;100153.25;5054988;28;20045;-69
2022/06/03 06:12:39;;;;;;;6.72;1.42;;;;;;;20.71;51.58;100150.19;5055316;28;20064;-69
2022/06/03 06:15:40;;;;;;;1.67;0.90;;;;;;;20.66;50.92;100141.72;5053365;28;20106;-69
2022/06/03 06:18:23;;;;;;;3.50;1.50;;;;;;;20.73;50.87;100147.56;5054657;28;20136;-69
2022/06/03 06:21:13;;;;;;;0.55;0.55;;;;;;;20.84;50.93;100148.03;5054750;28;20048;-69
2022/06/03 06:23:45;;;;;;;1.05;0.75;;;;;;;20.98;50.65;100153.56;5054621;28;20053;-69
2022/06/03 06:26:37;;;;;;;0.57;0.57;;;;;;;21.06;50.47;100147.25;5054591;28;20106;-70
2022/06/03 06:29:30;;;;;;;1.17;1.08;;;;;;;21.10;50.24;100148.84;5054848;28;20072;-69
2022/06/03 06:32:41;;;;;;;0.80;0.68;;;;;;;21.09;50.16;100151.50;5054941;28;20041;-67
2022/06/03 06:35:40;;;;;;;0.50;0.50;;;;;;;21.22;49.99;100143.19;5043313;28;20086;-66
2022/06/03 06:38:28;;;;;;;0.50;0.50;;;;;;;21.34;49.78;100149.69;5054374;28;20095;-69
2022/06/03 06:41:17;;;;;;;1.23;0.90;;;;;;;21.45;49.78;100154.50;5054297;28;20091;-70
2022/06/03 06:43:51;;;;;;;0.60;0.60;;;;;;;21.54;49.91;100154.13;5054228;28;20051;-70
2022/06/03 06:46:29;;;;;;;0.50;0.50;;;;;;;21.65;49.49;100147.63;5054531;28;20488;-69
2022/06/03 06:49:15;;;;;;;0.60;0.60;;;;;;;21.81;49.70;100142.69;5054763;28;20069;-69
2022/06/03 06:52:06;;;;;;;0.80;0.80;;;;;;;22.00;49.19;100156.69;5034742;28;20099;-69
2022/06/03 06:54:48;;;;;;;0.93;0.85;;;;;;;22.18;49.02;100148.13;5054104;28;20045;-69
2022/06/03 06:57:21;;;;;;;0.73;0.73;;;;;;;22.19;48.55;100144.63;5054059;28;20053;-69
2022/06/03 06:59:58;;;;;;;4.15;1.27;;;;;;;22.25;48.23;100141.78;5052547;28;20051;-70
2022/06/03 07:02:42;;;;;;;3.45;1.63;;;;;;;22.24;48.35;100145.31;5028203;28;20079;-70
2022/06/03 07:05:18;;;;;;;0.65;0.65;;;;;;;22.29;48.55;100145.94;5053970;28;20048;-70
2022/06/03 07:07:54;;;;;;;1.17;1.08;;;;;;;22.29;48.27;100140.72;5053949;28;20553;-70
2022/06/03 07:10:27;;;;;;;1.00;0.90;;;;;;;22.40;48.31;100132.50;5053747;28;20075;-70
2022/06/03 07:13:04;;;;;;;0.63;0.63;;;;;;;22.48;48.09;100114.81;5053844;28;20127;-70
2022/06/03 07:15:50;;;;;;;0.55;0.55;;;;;;;22.81;48.04;100134.22;5053676;28;20540;-67
2022/06/03 07:21:15;;;;;;;0.60;0.60;;;;;;;22.97;47.44;100103.13;5053416;28;20131;-67
2022/06/03 07:23:49;;;;;;;1.02;0.90;;;;;;;23.08;47.26;100116.53;5053609;28;20529;-70
2022/06/03 07:26:36;;;;;;;0.85;0.85;;;;;;;22.80;47.57;100079.59;5053539;28;20051;-67
2022/06/03 07:29:12;;;;;;;1.88;0.90;;;;;;;22.87;47.73;100107.06;5053653;28;20371;-69
2022/06/03 07:31:48;;;;;;;0.57;0.57;;;;;;;22.81;47.88;100105.59;5048424;28;20128;-69
2022/06/03 07:34:23;;;;;;;0.57;0.57;;;;;;;22.75;48.17;100099.81;5050480;28;20045;-67
2022/06/03 07:36:57;;;;;;;0.98;0.93;;;;;;;22.79;48.24;100096.16;5035562;28;20092;-69
2022/06/03 07:39:49;;;;;;;0.80;0.80;;;;;;;22.87;48.26;100094.03;5053464;28;20056;-70
2022/06/03 07:42:27;;;;;;;0.90;0.88;;;;;;;22.91;48.35;100111.22;5053343;28;20055;-66
2022/06/03 07:45:06;;;;;;;0.73;0.60;;;;;;;23.02;48.38;100111.59;5053371;28;20045;-69
2022/06/03 07:47:35;;;;;;;1.42;1.13;;;;;;;23.13;48.30;100114.56;5051991;28;20049;-67
2022/06/03 07:50:06;;;;;;;;;;;;;;;23.25;48.25;100116.63;5048097;28;20042;-66
2022/06/03 07:52:41;;;;;;;1.17;0.70;;;;;;;23.34;48.38;100108.38;5035644;28;19936;-67
2022/06/03 07:55:18;;;;;;;0.75;0.70;;;;;;;23.45;48.41;100116.56;5024570;28;20053;-67
2022/06/03 07:57:51;;;;;;;0.68;0.68;;;;;;;23.49;48.15;100118.09;5048271;28;20045;-67
2022/06/03 08:00:22;;;;;;;1.27;0.82;;;;;;;23.51;48.04;100115.44;5053503;28;20501;-67
2022/06/03 08:03:03;;;;;;;0.60;0.60;;;;;;;23.52;48.28;100117.97;5052904;28;20048;-67
2022/06/03 08:05:32;;;;;;;0.50;0.50;;;;;;;23.50;48.31;100109.38;5053650;28;20045;-68
2022/06/03 08:13:45;;;;;;;0.60;0.60;;;;;;;23.56;48.04;100114.34;5033378;28;20053;-69
2022/06/03 08:16:20;;;;;;;1.48;1.33;;;;;;;23.78;48.06;100101.94;5048488;28;20104;-66
2022/06/03 08:18:49;;;;;;;0.70;0.70;;;;;;;23.92;47.41;100096.09;5036825;28;20041;-67
2022/06/03 08:21:24;;;;;;;0.68;0.68;;;;;;;24.09;47.26;100087.47;5045628;28;20053;-69
2022/06/03 08:23:56;;;;;;;0.90;0.85;;;;;;;24.21;47.13;100092.06;5045712;28;20132;-68
2022/06/03 08:26:33;;;;;;;0.73;0.73;;;;;;;24.29;46.96;100089.91;5051386;28;20471;-69
2022/06/03 08:29:10;;;;;;;0.80;0.80;;;;;;;24.37;46.78;100087.75;5057020;28;20049;-67
2022/06/03 08:31:40;;;;;;;1.10;0.77;;;;;;;24.51;46.35;100085.28;5056843;28;20103;-65
2022/06/03 08:34:20;;;;;;;0.73;0.52;;;;;;;24.76;46.84;100090.94;5055291;28;20040;-68
2022/06/03 08:36:50;;;;;;;0.68;0.68;;;;;;;25.03;46.64;100086.88;5045105;28;20055;-67
2022/06/03 08:39:25;;;;;;;0.68;0.68;;;;;;;25.13;46.48;100084.63;5037394;28;20041;-68
2022/06/03 08:42:12;;;;;;;0.60;0.60;;;;;;;25.05;47.55;100082.44;5052950;28;20041;-66
2022/06/03 08:45:03;;;;;;;1.75;0.70;;;;;;;25.11;47.96;100097.78;5044430;28;20068;-67
2022/06/03 08:47:39;;;;;;;0.80;0.80;;;;;;;25.37;47.44;100098.13;5018781;28;20041;-67
2022/06/03 08:50:13;;;;;;;0.70;0.70;;;;;;;25.55;46.81;100065.78;5036461;28;20072;-65
2022/06/03 08:52:50;;;;;;;0.85;0.85;;;;;;;25.59;46.24;100083.00;5036590;28;20100;-67
2022/06/03 08:55:38;;;;;;;1.13;1.02;;;;;;;25.80;45.73;100089.63;5036346;28;20491;-67
2022/06/03 08:58:17;;;;;;;0.60;0.60;;;;;;;26.05;46.34;100092.53;5036684;28;20049;-67
2022/06/03 09:00:57;;;;;;;1.27;0.80;;;;;;;26.18;45.64;100082.25;5036240;28;20599;-66
2022/06/03 09:03:29;;;;;;;2.63;0.90;;;;;;;25.98;45.29;100091.22;5036663;28;20046;-69
2022/06/03 09:06:06;;;;;;;1.05;0.85;;;;;;;26.08;45.50;100087.13;5045539;28;20400;-66
2022/06/03 09:08:41;;;;;;;0.60;0.60;;;;;;;26.21;45.40;100087.28;5049255;28;20059;-67
2022/06/03 09:11:16;;;;;;;0.70;0.70;;;;;;;26.56;45.37;100089.50;5036735;28;20041;-67
2022/06/03 09:13:52;;;;;;;1.02;0.93;;;;;;;26.46;44.93;100087.53;5036386;28;20049;-68
2022/06/03 09:16:25;;;;;;;0.75;0.75;;;;;;;26.48;44.44;100081.28;5036257;28;20124;-66
2022/06/03 09:18:59;;;;;;;0.63;0.63;;;;;;;26.35;44.26;100088.16;5036424;28;20483;-66
2022/06/03 09:21:32;;;;;;;0.60;0.60;;;;;;;26.16;43.95;100084.94;5036591;28;20411;-67
2022/06/03 09:24:10;;;;;;;0.73;0.70;;;;;;;26.16;44.37;100078.84;5036258;28;20065;-67
2022/06/03 09:26:45;;;;;;;0.68;0.68;;;;;;;26.35;44.64;100075.06;5041679;28;20052;-68
2022/06/03 09:29:16;;;;;;;3.35;1.35;;;;;;;26.40;45.56;100078.25;5044735;28;20497;-67
2022/06/03 09:31:50;;;;;;;0.60;0.60;;;;;;;26.39;44.96;100083.59;5035360;28;20045;-67
2022/06/03 09:34:22;;;;;;;1.27;1.00;;;;;;;26.43;43.91;100078.09;5035995;28;20526;-65
2022/06/03 09:36:53;;;;;;;0.50;0.50;;;;;;;26.52;44.51;100082.75;5045821;28;20045;-67
2022/06/03 09:39:43;;;;;;;0.80;0.70;;;;;;;26.77;45.21;100076.09;5055659;28;20049;-67
2022/06/03 09:42:16;;;;;;;0.70;0.70;;;;;;;26.96;44.70;100081.88;5055336;28;20071;-67
2022/06/03 09:44:48;;;;;;;0.80;0.80;;;;;;;27.19;44.01;100078.66;5056335;28;20051;-69
2022/06/03 09:47:20;;;;;;;0.75;0.75;;;;;;;26.99;42.25;100060.75;5049168;28;20050;-68
2022/06/03 09:49:51;;;;;;;1.20;1.02;;;;;;;26.90;42.63;100080.47;5042638;28;20056;-64
2022/06/03 09:52:24;;;;;;;1.10;1.00;;;;;;;26.71;42.33;100073.78;5035691;28;20103;-67
2022/06/03 09:54:54;;;;;;;0.57;0.57;;;;;;;26.74;42.47;100077.06;5043932;28;20049;-67
2022/06/03 09:57:28;;;;;;;1.13;0.70;;;;;;;26.80;41.55;100076.75;5048115;28;20046;-67
2022/06/03 10:00:03;;;;;;;3.00;1.40;;;;;;;26.91;40.94;100076.09;5040040;28;20053;-66
2022/06/03 10:02:40;;;;;;;1.00;0.82;;;;;;;26.97;41.44;100079.16;5035295;28;20095;-66
2022/06/03 10:05:12;;;;;;;0.60;0.60;;;;;;;27.01;41.46;100069.34;5035470;28;20026;-67
2022/06/03 10:07:41;;;;;;;0.50;0.50;;;;;;;27.18;41.63;100077.00;5038839;28;20041;-67
2022/06/03 10:12:53;;;;;;;0.57;0.57;;;;;;;27.49;40.25;100076.78;5052335;28;20048;-66
2022/06/03 10:18:08;;;;;;;1.95;1.52;;;;;;;27.75;39.07;100073.31;5037312;28;20053;-65
2022/06/03 10:20:37;;;;;;;0.65;0.65;;;;;;;27.38;37.67;100063.50;5034781;28;20144;-67
2022/06/03 10:23:09;;;;;;;0.40;0.40;;;;;;;27.46;37.51;100066.47;5035272;28;20099;-67
2022/06/03 10:25:38;;;;;;;0.50;0.50;;;;;;;27.34;37.11;100067.22;5049926;28;20566;-67
2022/06/03 10:28:11;;;;;;;2.25;1.42;;;;;;;27.32;37.00;100058.63;5052106;28;20045;-67
2022/06/03 10:30:42;;;;;;;0.63;0.60;;;;;;;27.52;36.68;100060.81;5054880;28;20045;-68
2022/06/03 10:33:18;;;;;;;0.80;0.80;;;;;;;27.67;36.74;100054.59;5054964;28;20107;-68
2022/06/03 10:35:48;;;;;;;0.88;0.80;;;;;;;27.70;36.48;100043.06;5054550;28;20053;-65
2022/06/03 10:38:19;;;;;;;0.73;0.73;;;;;;;27.60;36.38;100048.06;5054367;28;20529;-67
2022/06/03 10:40:49;;;;;;;1.25;1.15;;;;;;;27.57;36.50;100036.94;5055083;28;20045;-68
2022/06/03 10:43:25;;;;;;;3.60;0.63;;;;;;;27.68;36.55;100035.31;5053477;28;20037;-68
2022/06/03 10:46:09;;;;;;;0.68;0.60;;;;;;;27.64;34.97;100018.06;5036954;28;20457;-71
2022/06/03 10:48:42;;;;;;;0.73;0.73;;;;;;;27.63;34.94;100032.13;5046009;28;20049;-69
2022/06/03 10:51:19;;;;;;;0.88;0.88;;;;;;;27.62;35.42;100029.59;5041604;28;20048;-67
2022/06/03 11:02:15;;;;;;;0.52;0.52;;;;;;;27.90;36.77;100017.22;5016056;28;20048;-68
2022/06/03 11:04:45;;;;;;;0.70;0.70;;;;;;;28.06;36.93;100008.31;5053045;28;20132;-67
2022/06/03 11:07:26;;;;;;;0.60;0.60;;;;;;;28.03;35.86;100008.50;5047481;28;20041;-66
2022/06/03 11:09:56;;;;;;;0.50;0.50;;;;;;;27.84;36.40;100003.63;5040271;28;20049;-67
2022/06/03 11:12:27;;;;;;;0.60;0.60;;;;;;;27.73;36.40;100006.97;5036470;28;20037;-67
2022/06/03 11:14:58;;;;;;;0.68;0.68;;;;;;;27.86;36.85;99996.50;5051851;28;20128;-67
2022/06/03 11:17:37;;;;;;;0.80;0.80;;;;;;;28.05;36.74;99998.78;5049581;28;20041;-67
2022/06/03 11:20:33;;;;;;;0.50;0.50;;;;;;;27.88;36.55;99979.69;5045040;28;20045;-68
2022/06/03 11:23:04;;;;;;;2.20;0.80;;;;;;;28.12;36.63;100007.91;5043391;28;20060;-68
2022/06/03 11:25:39;;;;;;;0.60;0.60;;;;;;;28.36;36.70;99995.75;5053491;28;20449;-67
2022/06/03 11:28:13;;;;;;;0.43;0.43;;;;;;;28.51;37.11;99989.41;5046261;28;20059;-67
2022/06/03 11:30:51;;;;;;;0.70;0.70;;;;;;;28.51;36.48;99968.41;5044322;28;20119;-68
2022/06/03 11:33:25;;;;;;;0.52;0.52;;;;;;;28.49;36.54;99979.03;5047716;28;20029;-67
2022/06/03 11:35:57;;;;;;;0.73;0.73;;;;;;;28.38;36.53;99978.09;5049901;28;20051;-67
2022/06/03 11:38:33;;;;;;;0.50;0.50;;;;;;;28.43;36.97;99970.75;5053481;28;20045;-67
2022/06/03 11:41:08;;;;;;;0.40;0.40;;;;;;;28.47;36.97;99966.94;5053389;28;20040;-66
2022/06/03 11:43:43;;;;;;;0.50;0.50;;;;;;;28.49;37.65;99970.28;5046067;28;20546;-68
2022/06/03 11:46:37;;;;;;;0.60;0.60;;;;;;;28.49;37.21;99967.66;5053418;28;20041;-67
2022/06/03 11:49:07;;;;;;;0.77;0.73;;;;;;;28.38;37.15;99957.09;5053541;28;20118;-67
2022/06/03 11:51:37;;;;;;;1.17;0.93;;;;;;;28.51;37.04;99953.47;5051402;28;20047;-67
2022/06/03 11:54:13;;;;;;;0.63;0.60;;;;;;;28.76;37.09;99954.41;5046937;28;20060;-68
2022/06/03 11:56:45;;;;;;;0.60;0.60;;;;;;;28.91;37.09;99953.31;5054236;28;20398;-69
2022/06/03 11:59:17;;;;;;;0.63;0.63;;;;;;;28.90;36.51;99951.63;5052741;28;20045;-67
2022/06/03 12:01:56;;;;;;;1.10;1.00;;;;;;;28.73;35.96;99947.59;5059174;28;20041;-67
2022/06/03 12:04:47;;;;;;;0.60;0.60;;;;;;;28.79;35.93;99936.66;5034858;28;20049;-67
2022/06/03 12:07:30;;;;;;;1.60;1.02;;;;;;;28.85;36.12;99936.19;5057602;28;20087;-67
2022/06/03 12:10:12;;;;;;;0.60;0.60;;;;;;;28.51;36.23;99931.63;5057372;28;20052;-67
2022/06/03 12:15:41;;;;;;;0.55;0.55;;;;;;;28.51;36.24;99931.63;5056533;28;20075;-67
2022/06/03 12:18:52;;;;;;;0.75;0.75;;;;;;;28.17;37.45;99927.06;5056079;28;20071;-67
2022/06/03 12:21:46;;;;;;;2.53;0.77;;;;;;;28.25;38.93;99919.47;5057300;28;20144;-68
2022/06/03 12:24:40;;;;;;;0.52;0.52;;;;;;;28.51;38.05;99924.59;5013378;28;20145;-71
2022/06/03 12:27:24;;;;;;;0.75;0.70;;;;;;;28.60;36.84;99925.78;5056503;28;20056;-66
2022/06/03 12:30:23;;;;;;;0.82;0.80;;;;;;;28.60;36.27;99904.75;5044414;28;20057;-68
2022/06/03 12:32:57;;;;;;;0.80;0.80;;;;;;;28.61;35.94;99910.81;5039588;28;20498;-68
2022/06/03 12:35:48;;;;;;;0.60;0.60;;;;;;;28.63;36.10;99904.50;5039765;28;20063;-71
2022/06/03 12:38:44;;;;;;;0.60;0.60;;;;;;;28.68;36.83;99912.06;5039782;28;20406;-67
2022/06/03 12:41:53;;;;;;;0.50;0.50;;;;;;;28.68;37.09;99905.03;5046226;28;20049;-70
2022/06/03 12:44:34;;;;;;;0.55;0.55;;;;;;;28.50;37.37;99906.31;5057011;28;20036;-68
2022/06/03 12:47:25;;;;;;;0.68;0.68;;;;;;;28.52;36.94;99907.03;5058723;28;20083;-69
2022/06/03 12:49:55;;;;;;;0.50;0.50;;;;;;;28.54;36.98;99895.47;5057486;28;20051;-68
2022/06/03 12:52:36;;;;;;;1.10;1.00;;;;;;;28.47;37.04;99898.66;5059018;28;20502;-66
2022/06/03 12:55:10;;;;;;;0.60;0.60;;;;;;;28.52;37.59;99899.16;5060025;28;20040;-70
2022/06/03 12:57:48;;;;;;;0.50;0.50;;;;;;;28.58;36.67;99890.81;5059879;28;20382;-68
2022/06/03 13:00:27;;;;;;;0.65;0.65;;;;;;;28.54;36.38;99881.50;5040651;28;20047;-68
2022/06/03 13:02:58;;;;;;;0.60;0.60;;;;;;;28.58;36.67;99890.81;5059349;28;20051;-70
2022/06/03 13:05:42;;;;;;;0.60;0.60;;;;;;;28.55;37.29;99885.81;5059191;28;20515;-68
2022/06/03 13:08:13;;;;;;;0.60;0.60;;;;;;;28.62;37.01;99881.84;5055383;28;20102;-68
2022/06/03 13:10:56;;;;;;;0.60;0.60;;;;;;;28.58;36.83;99869.81;5038737;28;20109;-68
2022/06/03 13:13:39;;;;;;;0.85;0.82;;;;;;;28.46;37.46;99878.56;5056538;28;20509;-67
2022/06/03 13:16:31;;;;;;;0.60;0.60;;;;;;;28.54;37.60;99871.84;5056079;28;20052;-66
2022/06/03 13:19:31;;;;;;;0.60;0.60;;;;;;;28.64;37.18;99863.31;5049645;28;20041;-68
2022/06/03 13:22:07;;;;;;;0.55;0.55;;;;;;;28.68;37.29;99870.88;5035769;28;20041;-68
2022/06/03 13:24:38;;;;;;;0.70;0.70;;;;;;;28.65;36.38;99865.81;5036163;28;20455;-67
2022/06/03 13:27:12;;;;;;;0.50;0.50;;;;;;;28.57;36.71;99873.41;5043450;28;20079;-66